sensor_id;sensor_type;location;lat;lon;timestamp;pressure;altitude;pressure_sealevel;temperature
53667;BMP280;39568;51.026;5.468;2023-01-06T00:00:28;101083.38;;;10.94
53667;BMP280;39568;51.026;5.468;2023-01-06T00:02:55;101075.78;;;10.81
53667;BMP280;39568;51.026;5.468;2023-01-06T00:05:22;101072.69;;;10.89
53667;BMP280;39568;51.026;5.468;2023-01-06T00:07:49;101077.72;;;10.81
53667;BMP280;39568;51.026;5.468;2023-01-06T00:10:16;101067.16;;;10.92
53667;BMP280;39568;51.026;5.468;2023-01-06T00:12:43;101057.22;;;10.93
53667;BMP280;39568;51.026;5.468;2023-01-06T00:15:12;101059.69;;;10.96
53667;BMP280;39568;51.026;5.468;2023-01-06T00:17:39;101064.50;;;10.92
53667;BMP280;39568;51.026;5.468;2023-01-06T00:20:07;101052.88;;;10.95
53667;BMP280;39568;51.026;5.468;2023-01-06T00:22:34;101055.50;;;10.90
53667;BMP280;39568;51.026;5.468;2023-01-06T00:25:01;101041.97;;;10.88
53667;BMP280;39568;51.026;5.468;2023-01-06T00:27:29;101033.72;;;10.86
53667;BMP280;39568;51.026;5.468;2023-01-06T00:29:56;101039.78;;;10.86
53667;BMP280;39568;51.026;5.468;2023-01-06T00:32:24;101040.72;;;10.83
53667;BMP280;39568;51.026;5.468;2023-01-06T00:34:50;101049.97;;;10.93
53667;BMP280;39568;51.026;5.468;2023-01-06T00:37:17;101042.97;;;10.96
53667;BMP280;39568;51.026;5.468;2023-01-06T00:39:44;101035.41;;;10.89
53667;BMP280;39568;51.026;5.468;2023-01-06T00:42:11;101045.59;;;10.90
53667;BMP280;39568;51.026;5.468;2023-01-06T00:44:38;101042.94;;;10.90
53667;BMP280;39568;51.026;5.468;2023-01-06T00:47:07;101043.16;;;10.87
53667;BMP280;39568;51.026;5.468;2023-01-06T00:49:36;101040.72;;;10.83
53667;BMP280;39568;51.026;5.468;2023-01-06T00:52:03;101026.47;;;10.86
53667;BMP280;39568;51.026;5.468;2023-01-06T00:54:29;101037.56;;;10.85
53667;BMP280;39568;51.026;5.468;2023-01-06T00:56:56;101040.47;;;10.87
53667;BMP280;39568;51.026;5.468;2023-01-06T00:59:24;101024.47;;;10.75
53667;BMP280;39568;51.026;5.468;2023-01-06T01:01:53;101040.00;;;10.82
53667;BMP280;39568;51.026;5.468;2023-01-06T01:04:20;101037.09;;;10.80
53667;BMP280;39568;51.026;5.468;2023-01-06T01:06:49;101039.03;;;10.86
53667;BMP280;39568;51.026;5.468;2023-01-06T01:09:18;101041.72;;;10.86
53667;BMP280;39568;51.026;5.468;2023-01-06T01:11:46;101041.47;;;10.84
53667;BMP280;39568;51.026;5.468;2023-01-06T01:14:31;101038.97;;;10.74
53667;BMP280;39568;51.026;5.468;2023-01-06T01:16:57;101043.84;;;10.81
53667;BMP280;39568;51.026;5.468;2023-01-06T01:19:25;101051.88;;;10.87
53667;BMP280;39568;51.026;5.468;2023-01-06T01:21:53;101043.38;;;10.83
53667;BMP280;39568;51.026;5.468;2023-01-06T01:24:20;101033.94;;;10.82
53667;BMP280;39568;51.026;5.468;2023-01-06T01:26:47;101035.13;;;10.75
53667;BMP280;39568;51.026;5.468;2023-01-06T01:29:15;101039.78;;;10.86
53667;BMP280;39568;51.026;5.468;2023-01-06T01:31:43;101021.84;;;10.87
53667;BMP280;39568;51.026;5.468;2023-01-06T01:34:11;101044.34;;;10.80
53667;BMP280;39568;51.026;5.468;2023-01-06T01:36:38;101027.66;;;10.85
53667;BMP280;39568;51.026;5.468;2023-01-06T01:39:07;101024.72;;;10.77
53667;BMP280;39568;51.026;5.468;2023-01-06T01:41:33;101028.59;;;10.76
53667;BMP280;39568;51.026;5.468;2023-01-06T01:44:45;101024.28;;;10.85
53667;BMP280;39568;51.026;5.468;2023-01-06T01:46:49;101014.84;;;10.84
53667;BMP280;39568;51.026;5.468;2023-01-06T01:49:17;101017.50;;;10.84
53667;BMP280;39568;51.026;5.468;2023-01-06T01:51:47;101026.94;;;10.85
53667;BMP280;39568;51.026;5.468;2023-01-06T01:54:18;101022.34;;;10.85
53667;BMP280;39568;51.026;5.468;2023-01-06T01:56:48;101021.13;;;10.80
53667;BMP280;39568;51.026;5.468;2023-01-06T01:59:18;101018.94;;;10.85
53667;BMP280;39568;51.026;5.468;2023-01-06T02:01:47;101010.97;;;10.85
53667;BMP280;39568;51.026;5.468;2023-01-06T02:04:15;101023.28;;;10.82
53667;BMP280;39568;51.026;5.468;2023-01-06T02:06:43;101000.78;;;10.77
53667;BMP280;39568;51.026;5.468;2023-01-06T02:09:15;100999.16;;;10.91
53667;BMP280;39568;51.026;5.468;2023-01-06T02:11:44;101003.75;;;10.91
53667;BMP280;39568;51.026;5.468;2023-01-06T02:14:17;100994.06;;;10.93
53667;BMP280;39568;51.026;5.468;2023-01-06T02:17:14;100995.22;;;10.87
53667;BMP280;39568;51.026;5.468;2023-01-06T02:20:04;100984.38;;;10.90
53667;BMP280;39568;51.026;5.468;2023-01-06T02:23:02;100972.91;;;10.73
53667;BMP280;39568;51.026;5.468;2023-01-06T02:25:47;100971.97;;;10.81
53667;BMP280;39568;51.026;5.468;2023-01-06T02:28:44;100973.66;;;10.79
53667;BMP280;39568;51.026;5.468;2023-01-06T02:34:17;100968.13;;;10.82
53667;BMP280;39568;51.026;5.468;2023-01-06T02:36:54;100972.91;;;10.73
53667;BMP280;39568;51.026;5.468;2023-01-06T02:39:32;100969.31;;;10.81
53667;BMP280;39568;51.026;5.468;2023-01-06T02:42:13;100965.19;;;10.75
53667;BMP280;39568;51.026;5.468;2023-01-06T02:44:48;100972.50;;;10.86
53667;BMP280;39568;51.026;5.468;2023-01-06T02:47:29;100961.59;;;10.84
53667;BMP280;39568;51.026;5.468;2023-01-06T02:50:01;100962.31;;;10.78
53667;BMP280;39568;51.026;5.468;2023-01-06T02:52:32;100958.63;;;10.70
53667;BMP280;39568;51.026;5.468;2023-01-06T02:55:04;100946.59;;;10.80
53667;BMP280;39568;51.026;5.468;2023-01-06T02:57:36;100958.63;;;10.70
53667;BMP280;39568;51.026;5.468;2023-01-06T03:00:10;100946.78;;;10.71
53667;BMP280;39568;51.026;5.468;2023-01-06T03:02:41;100934.19;;;10.66
53667;BMP280;39568;51.026;5.468;2023-01-06T03:05:10;100923.28;;;10.64
53667;BMP280;39568;51.026;5.468;2023-01-06T03:07:38;100935.66;;;10.67
53667;BMP280;39568;51.026;5.468;2023-01-06T03:10:06;100934.44;;;10.68
53667;BMP280;39568;51.026;5.468;2023-01-06T03:12:38;100954.75;;;10.71
53667;BMP280;39568;51.026;5.468;2023-01-06T03:15:07;100937.31;;;10.70
53667;BMP280;39568;51.026;5.468;2023-01-06T03:17:35;100932.28;;;10.72
53667;BMP280;39568;51.026;5.468;2023-01-06T03:20:04;100939.03;;;10.73
53667;BMP280;39568;51.026;5.468;2023-01-06T03:22:32;100931.78;;;10.74
53667;BMP280;39568;51.026;5.468;2023-01-06T03:25:00;100934.22;;;10.77
53667;BMP280;39568;51.026;5.468;2023-01-06T03:27:26;100929.88;;;10.80
53667;BMP280;39568;51.026;5.468;2023-01-06T03:29:53;100933.50;;;10.77
53667;BMP280;39568;51.026;5.468;2023-01-06T03:32:26;100932.50;;;10.69
53667;BMP280;39568;51.026;5.468;2023-01-06T03:35:18;100942.47;;;10.85
53667;BMP280;39568;51.026;5.468;2023-01-06T03:37:54;100930.41;;;10.84
53667;BMP280;39568;51.026;5.468;2023-01-06T03:40:29;100932.56;;;10.86
53667;BMP280;39568;51.026;5.468;2023-01-06T03:43:01;100929.16;;;10.79
53667;BMP280;39568;51.026;5.468;2023-01-06T03:45:56;100926.69;;;10.70
53667;BMP280;39568;51.026;5.468;2023-01-06T03:48:34;100916.31;;;10.72
53667;BMP280;39568;51.026;5.468;2023-01-06T03:51:11;100926.22;;;10.72
53667;BMP280;39568;51.026;5.468;2023-01-06T03:53:45;100938.56;;;10.69
53667;BMP280;39568;51.026;5.468;2023-01-06T03:56:18;100905.19;;;10.74
53667;BMP280;39568;51.026;5.468;2023-01-06T03:58:49;100919.91;;;10.69
53667;BMP280;39568;51.026;5.468;2023-01-06T04:01:16;100906.84;;;10.71
53667;BMP280;39568;51.026;5.468;2023-01-06T04:03:44;100902.94;;;10.61
53667;BMP280;39568;51.026;5.468;2023-01-06T04:06:13;100903.72;;;10.67
53667;BMP280;39568;51.026;5.468;2023-01-06T04:08:39;100917.47;;;10.66
53667;BMP280;39568;51.026;5.468;2023-01-06T04:11:06;100901.53;;;10.60
53667;BMP280;39568;51.026;5.468;2023-01-06T04:13:53;100897.88;;;10.63
53667;BMP280;39568;51.026;5.468;2023-01-06T04:16:19;100916.03;;;10.70
53667;BMP280;39568;51.026;5.468;2023-01-06T04:18:46;100915.31;;;10.64
53667;BMP280;39568;51.026;5.468;2023-01-06T04:21:14;100911.16;;;10.52
53667;BMP280;39568;51.026;5.468;2023-01-06T04:23:40;100907.31;;;10.59
53667;BMP280;39568;51.026;5.468;2023-01-06T04:26:07;100904.41;;;10.57
53667;BMP280;39568;51.026;5.468;2023-01-06T04:28:35;100889.66;;;10.61
53667;BMP280;39568;51.026;5.468;2023-01-06T04:31:01;100898.34;;;10.56
53667;BMP280;39568;51.026;5.468;2023-01-06T04:33:28;100892.53;;;10.58
53667;BMP280;39568;51.026;5.468;2023-01-06T04:35:55;100887.00;;;10.61
53667;BMP280;39568;51.026;5.468;2023-01-06T04:38:23;100878.72;;;10.48
53667;BMP280;39568;51.026;5.468;2023-01-06T04:40:50;100886.94;;;10.50
53667;BMP280;39568;51.026;5.468;2023-01-06T04:43:16;100882.09;;;10.43
53667;BMP280;39568;51.026;5.468;2023-01-06T04:45:44;100875.78;;;10.46
53667;BMP280;39568;51.026;5.468;2023-01-06T04:48:12;100874.84;;;10.55
53667;BMP280;39568;51.026;5.468;2023-01-06T04:50:39;100875.84;;;10.52
53667;BMP280;39568;51.026;5.468;2023-01-06T04:53:06;100876.56;;;10.52
53667;BMP280;39568;51.026;5.468;2023-01-06T04:55:38;100869.31;;;10.58
53667;BMP280;39568;51.026;5.468;2023-01-06T04:58:04;100867.16;;;10.57
53667;BMP280;39568;51.026;5.468;2023-01-06T05:00:31;100851.38;;;10.48
53667;BMP280;39568;51.026;5.468;2023-01-06T05:02:58;100855.00;;;10.50
53667;BMP280;39568;51.026;5.468;2023-01-06T05:05:25;100846.78;;;10.43
53667;BMP280;39568;51.026;5.468;2023-01-06T05:07:52;100861.56;;;10.49
53667;BMP280;39568;51.026;5.468;2023-01-06T05:10:19;100834.69;;;10.47
53667;BMP280;39568;51.026;5.468;2023-01-06T05:12:47;100850.91;;;10.55
53667;BMP280;39568;51.026;5.468;2023-01-06T05:15:14;100845.31;;;10.42
53667;BMP280;39568;51.026;5.468;2023-01-06T05:17:40;100841.94;;;10.41
53667;BMP280;39568;51.026;5.468;2023-01-06T05:20:08;100835.84;;;10.35
53667;BMP280;39568;51.026;5.468;2023-01-06T05:22:35;100844.13;;;10.37
53667;BMP280;39568;51.026;5.468;2023-01-06T05:25:02;100828.88;;;10.43
53667;BMP280;39568;51.026;5.468;2023-01-06T05:27:28;100844.59;;;10.41
53667;BMP280;39568;51.026;5.468;2023-01-06T05:29:56;100835.66;;;10.44
53667;BMP280;39568;51.026;5.468;2023-01-06T05:32:23;100828.41;;;10.50
53667;BMP280;39568;51.026;5.468;2023-01-06T05:34:50;100847.06;;;10.56
53667;BMP280;39568;51.026;5.468;2023-01-06T05:37:16;100822.56;;;10.46
53667;BMP280;39568;51.026;5.468;2023-01-06T05:39:43;100839.28;;;10.41
53667;BMP280;39568;51.026;5.468;2023-01-06T05:42:10;100833.22;;;10.46
53667;BMP280;39568;51.026;5.468;2023-01-06T05:44:36;100840.50;;;10.51
53667;BMP280;39568;51.026;5.468;2023-01-06T05:47:04;100825.25;;;10.46
53667;BMP280;39568;51.026;5.468;2023-01-06T05:49:31;100831.28;;;10.41
53667;BMP280;39568;51.026;5.468;2023-01-06T05:51:58;100852.34;;;10.45
53667;BMP280;39568;51.026;5.468;2023-01-06T05:54:24;100819.19;;;10.40
53667;BMP280;39568;51.026;5.468;2023-01-06T05:56:51;100842.63;;;10.42
53667;BMP280;39568;51.026;5.468;2023-01-06T05:59:18;100844.38;;;10.45
53667;BMP280;39568;51.026;5.468;2023-01-06T06:01:44;100838.31;;;10.44
53667;BMP280;39568;51.026;5.468;2023-01-06T06:04:13;100840.00;;;10.47
53667;BMP280;39568;51.026;5.468;2023-01-06T06:06:39;100851.63;;;10.44
53667;BMP280;39568;51.026;5.468;2023-01-06T06:09:06;100847.03;;;10.45
53667;BMP280;39568;51.026;5.468;2023-01-06T06:11:33;100857.91;;;10.47
53667;BMP280;39568;51.026;5.468;2023-01-06T06:13:59;100872.66;;;10.48
53667;BMP280;39568;51.026;5.468;2023-01-06T06:16:27;100842.66;;;10.36
53667;BMP280;39568;51.026;5.468;2023-01-06T06:18:55;100852.75;;;10.27
53667;BMP280;39568;51.026;5.468;2023-01-06T06:21:24;100873.59;;;10.34
53667;BMP280;39568;51.026;5.468;2023-01-06T06:23:52;100850.09;;;10.32
53667;BMP280;39568;51.026;5.468;2023-01-06T06:26:19;100866.31;;;10.34
53667;BMP280;39568;51.026;5.468;2023-01-06T06:28:45;100866.59;;;10.47
53667;BMP280;39568;51.026;5.468;2023-01-06T06:31:14;100854.75;;;10.43
53667;BMP280;39568;51.026;5.468;2023-01-06T06:33:42;100864.66;;;10.42
53667;BMP280;39568;51.026;5.468;2023-01-06T06:36:09;100868.81;;;10.49
53667;BMP280;39568;51.026;5.468;2023-01-06T06:38:41;100853.09;;;10.56
53667;BMP280;39568;51.026;5.468;2023-01-06T06:41:08;100860.81;;;10.54
53667;BMP280;39568;51.026;5.468;2023-01-06T06:43:35;100848.53;;;10.57
53667;BMP280;39568;51.026;5.468;2023-01-06T06:46:02;100841.97;;;10.58
53667;BMP280;39568;51.026;5.468;2023-01-06T06:48:29;100844.13;;;10.48
53667;BMP280;39568;51.026;5.468;2023-01-06T06:50:56;100859.69;;;10.61
53667;BMP280;39568;51.026;5.468;2023-01-06T06:53:23;100853.56;;;10.55
53667;BMP280;39568;51.026;5.468;2023-01-06T06:55:51;100845.16;;;10.67
53667;BMP280;39568;51.026;5.468;2023-01-06T06:58:18;100840.06;;;10.64
53667;BMP280;39568;51.026;5.468;2023-01-06T07:00:45;100851.19;;;10.62
53667;BMP280;39568;51.026;5.468;2023-01-06T07:03:11;100859.19;;;10.62
53667;BMP280;39568;51.026;5.468;2023-01-06T07:05:40;100859.69;;;10.61
53667;BMP280;39568;51.026;5.468;2023-01-06T07:08:07;100851.66;;;10.55
53667;BMP280;39568;51.026;5.468;2023-01-06T07:10:34;100860.38;;;10.61
53667;BMP280;39568;51.026;5.468;2023-01-06T07:13:02;100878.28;;;10.66
53667;BMP280;39568;51.026;5.468;2023-01-06T07:15:28;100861.13;;;10.62
53667;BMP280;39568;51.026;5.468;2023-01-06T07:17:58;100864.22;;;10.49
53667;BMP280;39568;51.026;5.468;2023-01-06T07:20:25;100876.31;;;10.45
53667;BMP280;39568;51.026;5.468;2023-01-06T07:22:52;100865.13;;;10.35
53667;BMP280;39568;51.026;5.468;2023-01-06T07:25:18;100884.41;;;10.30
53667;BMP280;39568;51.026;5.468;2023-01-06T07:27:45;100872.75;;;10.22
53667;BMP280;39568;51.026;5.468;2023-01-06T07:30:14;100880.00;;;10.16
53667;BMP280;39568;51.026;5.468;2023-01-06T07:32:41;100865.31;;;10.21
53667;BMP280;39568;51.026;5.468;2023-01-06T07:35:08;100877.16;;;10.25
53667;BMP280;39568;51.026;5.468;2023-01-06T07:37:35;100882.75;;;10.38
53667;BMP280;39568;51.026;5.468;2023-01-06T07:40:02;100876.31;;;10.45
53667;BMP280;39568;51.026;5.468;2023-01-06T07:42:29;100874.84;;;10.49
53667;BMP280;39568;51.026;5.468;2023-01-06T07:44:56;100868.59;;;10.52
53667;BMP280;39568;51.026;5.468;2023-01-06T07:47:24;100873.19;;;10.52
53667;BMP280;39568;51.026;5.468;2023-01-06T07:49:51;100887.00;;;10.61
53667;BMP280;39568;51.026;5.468;2023-01-06T07:52:20;100887.69;;;10.56
53667;BMP280;39568;51.026;5.468;2023-01-06T07:54:47;100877.75;;;10.46
53667;BMP280;39568;51.026;5.468;2023-01-06T07:57:14;100913.66;;;10.30
53667;BMP280;39568;51.026;5.468;2023-01-06T07:59:41;100884.47;;;10.36
53667;BMP280;39568;51.026;5.468;2023-01-06T08:02:08;100880.56;;;10.26
53667;BMP280;39568;51.026;5.468;2023-01-06T08:04:36;100894.78;;;10.23
53667;BMP280;39568;51.026;5.468;2023-01-06T08:07:03;100888.97;;;10.18
53667;BMP280;39568;51.026;5.468;2023-01-06T08:09:30;100906.59;;;10.16
53667;BMP280;39568;51.026;5.468;2023-01-06T08:11:57;100898.13;;;10.12
53667;BMP280;39568;51.026;5.468;2023-01-06T08:14:24;100941.31;;;10.07
53667;BMP280;39568;51.026;5.468;2023-01-06T08:16:50;100890.34;;;10.08
53667;BMP280;39568;51.026;5.468;2023-01-06T08:19:17;100918.88;;;10.08
53667;BMP280;39568;51.026;5.468;2023-01-06T08:21:45;100920.78;;;10.07
53667;BMP280;39568;51.026;5.468;2023-01-06T08:24:12;100931.44;;;10.07
53667;BMP280;39568;51.026;5.468;2023-01-06T08:26:39;100935.28;;;10.06
53667;BMP280;39568;51.026;5.468;2023-01-06T08:29:06;100925.16;;;10.10
53667;BMP280;39568;51.026;5.468;2023-01-06T08:31:34;100924.47;;;10.10
53667;BMP280;39568;51.026;5.468;2023-01-06T08:34:00;100959.47;;;10.08
53667;BMP280;39568;51.026;5.468;2023-01-06T08:36:27;100932.84;;;10.03
53667;BMP280;39568;51.026;5.468;2023-01-06T08:38:55;100915.41;;;9.96
53667;BMP280;39568;51.026;5.468;2023-01-06T08:41:22;100920.50;;;9.94
53667;BMP280;39568;51.026;5.468;2023-01-06T08:43:49;100935.94;;;9.96
53667;BMP280;39568;51.026;5.468;2023-01-06T08:46:17;100939.09;;;9.94
53667;BMP280;39568;51.026;5.468;2023-01-06T08:48:44;100930.13;;;9.92
53667;BMP280;39568;51.026;5.468;2023-01-06T08:51:14;100929.16;;;9.95
53667;BMP280;39568;51.026;5.468;2023-01-06T08:53:42;100932.09;;;9.97
53667;BMP280;39568;51.026;5.468;2023-01-06T08:56:16;100927.28;;;10.01
53667;BMP280;39568;51.026;5.468;2023-01-06T08:58:43;100936.94;;;9.98
53667;BMP280;39568;51.026;5.468;2023-01-06T09:01:16;100947.38;;;10.02
53667;BMP280;39568;51.026;5.468;2023-01-06T09:03:43;100952.94;;;10.04
53667;BMP280;39568;51.026;5.468;2023-01-06T09:06:10;100958.97;;;10.04
53667;BMP280;39568;51.026;5.468;2023-01-06T09:08:37;100957.03;;;10.05
53667;BMP280;39568;51.026;5.468;2023-01-06T09:11:04;100972.03;;;10.08
53667;BMP280;39568;51.026;5.468;2023-01-06T09:13:33;100963.84;;;10.11
53667;BMP280;39568;51.026;5.468;2023-01-06T09:16:03;100958.53;;;10.11
53667;BMP280;39568;51.026;5.468;2023-01-06T09:18:30;100972.09;;;10.13
53667;BMP280;39568;51.026;5.468;2023-01-06T09:20:57;100974.03;;;10.13
53667;BMP280;39568;51.026;5.468;2023-01-06T09:23:25;100978.91;;;10.20
53667;BMP280;39568;51.026;5.468;2023-01-06T09:25:53;100981.09;;;10.22
53667;BMP280;39568;51.026;5.468;2023-01-06T09:28:20;100971.44;;;10.24
53667;BMP280;39568;51.026;5.468;2023-01-06T09:30:48;100983.75;;;10.22
53667;BMP280;39568;51.026;5.468;2023-01-06T09:33:15;100983.53;;;10.25
53667;BMP280;39568;51.026;5.468;2023-01-06T09:35:43;100989.84;;;10.28
53667;BMP280;39568;51.026;5.468;2023-01-06T09:38:10;100993.53;;;10.36
53667;BMP280;39568;51.026;5.468;2023-01-06T09:40:44;100982.00;;;10.55
53667;BMP280;39568;51.026;5.468;2023-01-06T09:43:24;100992.53;;;10.75
53667;BMP280;39568;51.026;5.468;2023-01-06T09:45:59;100980.78;;;10.99
53667;BMP280;39568;51.026;5.468;2023-01-06T09:48:31;100994.91;;;11.27
53667;BMP280;39568;51.026;5.468;2023-01-06T09:50:59;101022.56;;;11.57
53667;BMP280;39568;51.026;5.468;2023-01-06T09:53:29;100979.44;;;11.31
53667;BMP280;39568;51.026;5.468;2023-01-06T09:56:04;101009.59;;;11.06
53667;BMP280;39568;51.026;5.468;2023-01-06T09:58:36;101010.00;;;10.88
53667;BMP280;39568;51.026;5.468;2023-01-06T10:01:09;101016.31;;;10.90
53667;BMP280;39568;51.026;5.468;2023-01-06T10:03:36;101014.63;;;10.93
53667;BMP280;39568;51.026;5.468;2023-01-06T10:06:21;101018.75;;;10.94
53667;BMP280;39568;51.026;5.468;2023-01-06T10:09:00;101034.94;;;10.90
53667;BMP280;39568;51.026;5.468;2023-01-06T10:11:35;101028.88;;;10.90
53667;BMP280;39568;51.026;5.468;2023-01-06T10:14:11;101029.63;;;10.90
53667;BMP280;39568;51.026;5.468;2023-01-06T10:16:51;101025.97;;;10.88
53667;BMP280;39568;51.026;5.468;2023-01-06T10:19:28;101010.97;;;10.85
53667;BMP280;39568;51.026;5.468;2023-01-06T10:22:03;101016.59;;;10.92
53667;BMP280;39568;51.026;5.468;2023-01-06T10:24:42;101024.78;;;10.94
53667;BMP280;39568;51.026;5.468;2023-01-06T10:27:20;101017.78;;;10.97
53667;BMP280;39568;51.026;5.468;2023-01-06T10:29:51;101013.19;;;10.97
53667;BMP280;39568;51.026;5.468;2023-01-06T10:32:21;101009.78;;;10.97
53667;BMP280;39568;51.026;5.468;2023-01-06T10:34:50;101016.59;;;10.92
53667;BMP280;39568;51.026;5.468;2023-01-06T10:37:21;101013.69;;;10.96
53667;BMP280;39568;51.026;5.468;2023-01-06T10:39:53;101018.06;;;10.99
53667;BMP280;39568;51.026;5.468;2023-01-06T10:42:26;101020.44;;;10.97
53667;BMP280;39568;51.026;5.468;2023-01-06T10:45:13;101013.16;;;10.86
53667;BMP280;39568;51.026;5.468;2023-01-06T10:47:42;101019.19;;;10.87
53667;BMP280;39568;51.026;5.468;2023-01-06T10:50:12;101003.00;;;10.90
53667;BMP280;39568;51.026;5.468;2023-01-06T10:52:39;101011.41;;;10.77
53667;BMP280;39568;51.026;5.468;2023-01-06T10:55:06;100999.34;;;10.76
53667;BMP280;39568;51.026;5.468;2023-01-06T10:57:37;101021.53;;;10.73
53667;BMP280;39568;51.026;5.468;2023-01-06T11:00:17;100998.75;;;10.61
53667;BMP280;39568;51.026;5.468;2023-01-06T11:02:49;100999.91;;;10.55
53667;BMP280;39568;51.026;5.468;2023-01-06T11:05:18;101010.06;;;10.51
53667;BMP280;39568;51.026;5.468;2023-01-06T11:07:52;101037.66;;;10.53
53667;BMP280;39568;51.026;5.468;2023-01-06T11:10:25;101006.94;;;10.52
53667;BMP280;39568;51.026;5.468;2023-01-06T11:12:54;100997.31;;;10.60
53667;BMP280;39568;51.026;5.468;2023-01-06T11:15:24;100992.47;;;10.64
53667;BMP280;39568;51.026;5.468;2023-01-06T11:17:55;100984.75;;;10.66
53667;BMP280;39568;51.026;5.468;2023-01-06T11:20:30;100995.09;;;10.59
53667;BMP280;39568;51.026;5.468;2023-01-06T11:23:12;100994.88;;;10.62
53667;BMP280;39568;51.026;5.468;2023-01-06T11:25:40;100996.06;;;10.56
53667;BMP280;39568;51.026;5.468;2023-01-06T11:28:16;100996.31;;;10.58
53667;BMP280;39568;51.026;5.468;2023-01-06T11:30:48;101009.09;;;10.54
53667;BMP280;39568;51.026;5.468;2023-01-06T11:33:19;101003.25;;;10.50
53667;BMP280;39568;51.026;5.468;2023-01-06T11:35:47;101005.00;;;10.53
53667;BMP280;39568;51.026;5.468;2023-01-06T11:38:16;101007.44;;;10.56
53667;BMP280;39568;51.026;5.468;2023-01-06T11:40:45;101005.75;;;10.59
53667;BMP280;39568;51.026;5.468;2023-01-06T11:43:14;100996.06;;;10.56
53667;BMP280;39568;51.026;5.468;2023-01-06T11:45:43;100991.19;;;10.54
53667;BMP280;39568;51.026;5.468;2023-01-06T11:48:15;100989.97;;;10.50
53667;BMP280;39568;51.026;5.468;2023-01-06T11:50:52;100992.63;;;10.50
53667;BMP280;39568;51.026;5.468;2023-01-06T11:53:19;100988.09;;;10.61
53667;BMP280;39568;51.026;5.468;2023-01-06T11:55:57;100989.06;;;10.58
53667;BMP280;39568;51.026;5.468;2023-01-06T11:58:41;100988.34;;;10.63
53667;BMP280;39568;51.026;5.468;2023-01-06T12:01:12;100982.09;;;10.66
53667;BMP280;39568;51.026;5.468;2023-01-06T12:03:43;100983.09;;;10.74
53667;BMP280;39568;51.026;5.468;2023-01-06T12:06:19;100982.38;;;10.79
53667;BMP280;39568;51.026;5.468;2023-01-06T12:08:52;100990.16;;;10.89
53667;BMP280;39568;51.026;5.468;2023-01-06T12:11:24;100994.03;;;10.88
53667;BMP280;39568;51.026;5.468;2023-01-06T12:13:54;100972.97;;;10.90
53667;BMP280;39568;51.026;5.468;2023-01-06T12:16:27;100975.91;;;10.97
53667;BMP280;39568;51.026;5.468;2023-01-06T12:18:58;100973.06;;;11.06
53667;BMP280;39568;51.026;5.468;2023-01-06T12:21:28;100969.88;;;11.02
53667;BMP280;39568;51.026;5.468;2023-01-06T12:23:58;100961.63;;;10.95
53667;BMP280;39568;51.026;5.468;2023-01-06T12:26:26;100955.34;;;10.98
53667;BMP280;39568;51.026;5.468;2023-01-06T12:28:54;100965.25;;;10.97
53667;BMP280;39568;51.026;5.468;2023-01-06T12:31:25;100962.09;;;10.88
53667;BMP280;39568;51.026;5.468;2023-01-06T12:33:55;100962.34;;;10.84
53667;BMP280;39568;51.026;5.468;2023-01-06T12:36:31;100957.22;;;10.80
53667;BMP280;39568;51.026;5.468;2023-01-06T12:39:03;100954.56;;;10.80
53667;BMP280;39568;51.026;5.468;2023-01-06T12:41:35;100957.22;;;10.80
53667;BMP280;39568;51.026;5.468;2023-01-06T12:44:13;100946.84;;;10.82
53667;BMP280;39568;51.026;5.468;2023-01-06T12:46:49;100960.13;;;10.82
53667;BMP280;39568;51.026;5.468;2023-01-06T12:49:24;100950.47;;;10.85
53667;BMP280;39568;51.026;5.468;2023-01-06T12:51:57;100956.28;;;10.84
53667;BMP280;39568;51.026;5.468;2023-01-06T12:54:27;100950.22;;;10.83
53667;BMP280;39568;51.026;5.468;2023-01-06T12:57:04;100955.06;;;10.85
53667;BMP280;39568;51.026;5.468;2023-01-06T12:59:42;100951.94;;;10.86
53667;BMP280;39568;51.026;5.468;2023-01-06T13:02:23;100954.59;;;10.86
53667;BMP280;39568;51.026;5.468;2023-01-06T13:05:20;100958.94;;;10.84
53667;BMP280;39568;51.026;5.468;2023-01-06T13:07:57;100957.97;;;10.87
53667;BMP280;39568;51.026;5.468;2023-01-06T13:10:31;100960.13;;;10.82
53667;BMP280;39568;51.026;5.468;2023-01-06T13:13:23;100965.00;;;10.84
53667;BMP280;39568;51.026;5.468;2023-01-06T13:15:51;100958.44;;;10.85
53667;BMP280;39568;51.026;5.468;2023-01-06T13:18:25;100957.97;;;10.87
53667;BMP280;39568;51.026;5.468;2023-01-06T13:20:59;100962.09;;;10.88
53667;BMP280;39568;51.026;5.468;2023-01-06T13:23:44;100960.19;;;10.94
53667;BMP280;39568;51.026;5.468;2023-01-06T13:26:30;100957.25;;;10.86
53667;BMP280;39568;51.026;5.468;2023-01-06T13:29:10;100959.69;;;10.90
53667;BMP280;39568;51.026;5.468;2023-01-06T13:31:55;100964.75;;;10.88
53667;BMP280;39568;51.026;5.468;2023-01-06T13:34:38;100959.44;;;10.93
53667;BMP280;39568;51.026;5.468;2023-01-06T13:37:33;100952.41;;;10.90
53667;BMP280;39568;51.026;5.468;2023-01-06T13:40:07;100960.41;;;10.90
53667;BMP280;39568;51.026;5.468;2023-01-06T13:42:38;100954.63;;;10.92
53667;BMP280;39568;51.026;5.468;2023-01-06T13:45:12;100958.69;;;10.81
53667;BMP280;39568;51.026;5.468;2023-01-06T13:47:40;100957.03;;;10.84
53667;BMP280;39568;51.026;5.468;2023-01-06T13:50:10;100965.72;;;10.85
53667;BMP280;39568;51.026;5.468;2023-01-06T13:52:38;100956.28;;;10.84
53667;BMP280;39568;51.026;5.468;2023-01-06T13:55:24;100956.78;;;10.88
53667;BMP280;39568;51.026;5.468;2023-01-06T13:57:53;100962.81;;;10.88
53667;BMP280;39568;51.026;5.468;2023-01-06T14:00:24;100959.69;;;10.84
53667;BMP280;39568;51.026;5.468;2023-01-06T14:06:04;100964.53;;;10.91
53667;BMP280;39568;51.026;5.468;2023-01-06T14:08:37;100966.94;;;10.89
53667;BMP280;39568;51.026;5.468;2023-01-06T14:11:21;100957.28;;;10.92
53667;BMP280;39568;51.026;5.468;2023-01-06T14:13:51;100958.72;;;10.93
53667;BMP280;39568;51.026;5.468;2023-01-06T14:16:19;100958.28;;;11.00
53667;BMP280;39568;51.026;5.468;2023-01-06T14:18:48;100961.41;;;10.98
53667;BMP280;39568;51.026;5.468;2023-01-06T14:21:25;100961.63;;;10.95